Time;durP1;ratioP1;P1;durP2;ratioP2;P2;SDS_P1;SDS_P2;PMS_P1;PMS_P2;Temp;Humidity;BMP_temperature;BMP_pressure;BME280_temperature;BME280_humidity;BME280_pressure;Samples;Min_cycle;Max_cycle;Signal;HPM_P1;HPM_P2
2023/12/01 00:02:21;;;;;;;;;;;;;;;-140.72;100.00;56333.38;5093323;28;20006;-75
2023/12/01 00:04:46;;;;;;;;;;;;;;;-140.72;100.00;56333.38;5089158;28;19923;-75
2023/12/01 00:07:12;;;;;;;;;;;;;;;-140.72;100.00;56313.06;5105493;28;20003;-75
2023/12/01 00:09:37;;;;;;;;;;;;;;;-140.72;100.00;56288.69;5076252;28;19969;-75
2023/12/01 00:12:02;;;;;;;;;;;;;;;-140.72;100.00;56288.69;5091357;28;19928;-75
2023/12/01 00:14:28;;;;;;;;;;;;;;;-140.72;100.00;56304.94;5078598;28;19999;-75
2023/12/01 00:16:53;;;;;;;;;;;;;;;-140.72;100.00;56286.66;5106060;28;19919;-76
2023/12/01 00:19:18;;;;;;;;;;;;;;;-140.72;100.00;56231.81;5091365;28;19927;-75
2023/12/01 00:21:43;;;;;;;;;;;;;;;-140.72;100.00;56217.59;5085749;28;19916;-76
2023/12/01 00:24:09;;;;;;;;;;;;;;;-140.72;100.00;56170.88;5092732;28;19928;-75
2023/12/01 00:26:34;;;;;;;;;;;;;;;-140.72;100.00;56174.94;5098790;28;19920;-75
2023/12/01 00:28:59;;;;;;;;;;;;;;;-140.72;100.00;56162.75;5088581;28;20381;-75
2023/12/01 00:31:24;;;;;;;;;;;;;;;-140.72;100.00;56213.53;5089941;28;19927;-75
2023/12/01 00:33:51;;;;;;;;;;;;;;;-140.72;100.00;56148.53;5089176;28;19917;-75
2023/12/01 00:36:16;;;;;;;;;;;;;;;-140.72;100.00;56128.22;5094698;28;20269;-75
2023/12/01 00:38:42;;;;;;;;;;;;;;;-140.72;100.00;56093.69;5085681;28;19927;-75
2023/12/01 00:41:07;;;;;;;;;;;;;;;-140.72;100.00;56081.50;5090259;28;19927;-76
2023/12/01 00:43:32;;;;;;;;;;;;;;;-140.72;100.00;56073.38;5077472;28;19924;-75
2023/12/01 00:45:57;;;;;;;;;;;;;;;-140.72;100.00;56093.69;5099623;28;20375;-75
2023/12/01 00:48:22;;;;;;;;;;;;;;;-140.72;100.00;56053.06;5083552;28;19920;-75
2023/12/01 00:50:48;;;;;;;;;;;;;;;-140.72;100.00;56063.22;5091651;28;19920;-75
2023/12/01 00:53:13;;;;;;;;;;;;;;;-140.72;100.00;56024.66;5105228;28;19919;-75
2023/12/01 00:55:39;;;;;;;;;;;;;;;-140.72;100.00;56008.41;5107745;28;20033;-76
2023/12/01 00:58:04;;;;;;;;;;;;;;;-140.72;100.00;56000.28;5099239;28;20384;-75
2023/12/01 01:00:29;;;;;;;;;;;;;;;-140.72;100.00;55998.25;5101131;28;19920;-75
2023/12/01 01:02:54;;;;;;;;;;;;;;;-140.72;100.00;55953.56;5074966;28;20323;-75
2023/12/01 01:05:20;;;;;;;;;;;;;;;-140.72;100.00;55914.97;5092773;28;19927;-75
2023/12/01 01:07:45;;;;;;;;;;;;;;;-140.72;100.00;55898.72;5092605;28;19916;-75
2023/12/01 01:10:10;;;;;;;;;;;;;;;-140.72;100.00;55912.94;5062900;28;19973;-75
2023/12/01 01:12:36;;;;;;;;;;;;;;;-140.72;100.00;55872.31;5094919;28;20392;-75
2023/12/01 01:15:04;;;;;;;;;;;;;;;-140.72;100.00;55837.81;5073179;28;19920;-75
2023/12/01 01:17:30;;;;;;;;;;;;;;;-140.72;100.00;55862.16;5092387;28;20031;-75
2023/12/01 01:19:55;;;;;;;;;;;;;;;-140.72;100.00;55847.94;5096692;28;19943;-75
2023/12/01 01:22:20;;;;;;;;;;;;;;;-140.72;100.00;55829.69;5089122;28;20338;-75
2023/12/01 01:24:46;;;;;;;;;;;;;;;-140.72;100.00;55854.03;5088499;28;19931;-75
2023/12/01 01:27:11;;;;;;;;;;;;;;;-140.72;100.00;55809.38;5096828;28;19930;-75
2023/12/01 01:29:36;;;;;;;;;;;;;;;-140.72;100.00;55827.66;5096177;28;19924;-75
2023/12/01 01:32:01;;;;;;;;;;;;;;;-140.72;100.00;55752.50;5084981;28;20015;-75
2023/12/01 01:34:27;;;;;;;;;;;;;;;-140.72;100.00;55811.41;5080559;28;19920;-75
2023/12/01 01:36:52;;;;;;;;;;;;;;;-140.72;100.00;55738.28;5086255;28;20313;-75
2023/12/01 01:39:17;;;;;;;;;;;;;;;-140.72;100.00;55764.69;5098799;28;19996;-75
2023/12/01 01:41:43;;;;;;;;;;;;;;;-140.72;100.00;55720.00;5094260;28;19916;-75
2023/12/01 01:44:08;;;;;;;;;;;;;;;-140.72;100.00;55746.41;5091152;28;19939;-75
2023/12/01 01:46:35;;;;;;;;;;;;;;;-140.72;100.00;55762.66;5105184;28;20274;-75
2023/12/01 01:49:01;;;;;;;;;;;;;;;-140.72;100.00;55709.84;5086057;28;20054;-75
2023/12/01 01:51:26;;;;;;;;;;;;;;;-140.72;100.00;55748.44;5074240;28;19924;-75
2023/12/01 01:53:51;;;;;;;;;;;;;;;-140.72;100.00;55695.63;5068899;28;20305;-75
2023/12/01 01:56:17;;;;;;;;;;;;;;;-140.72;100.00;55713.91;5067980;28;19917;-75
2023/12/01 01:58:42;;;;;;;;;;;;;;;-140.72;100.00;55687.50;5084816;28;19916;-75
2023/12/01 02:01:07;;;;;;;;;;;;;;;-140.72;100.00;55675.34;5081308;28;19928;-75
2023/12/01 02:03:33;;;;;;;;;;;;;;;-140.72;100.00;55689.56;5092916;28;19922;-75
2023/12/01 02:05:58;;;;;;;;;;;;;;;-140.72;100.00;55715.94;5096860;28;19921;-75
2023/12/01 02:08:24;;;;;;;;;;;;;;;-140.72;100.00;55707.81;5091287;28;19916;-75
2023/12/01 02:10:50;;;;;;;;;;;;;;;-140.72;100.00;55717.97;5092575;28;20553;-75
2023/12/01 02:13:15;;;;;;;;;;;;;;;-140.72;100.00;55675.34;5100695;28;19916;-75
2023/12/01 02:15:42;;;;;;;;;;;;;;;-140.72;100.00;55659.09;5091326;28;20366;-75
2023/12/01 02:18:27;;;;;;;;;;;;;;;-140.72;100.00;55711.88;5096554;28;19970;-75
2023/12/01 02:20:53;;;;;;;;;;;;;;;-140.72;100.00;55659.09;5091856;28;19934;-74
2023/12/01 02:23:19;;;;;;;;;;;;;;;-140.72;100.00;55687.50;5097881;28;19928;-75
2023/12/01 02:25:45;;;;;;;;;;;;;;;-140.72;100.00;55663.16;5078616;28;19972;-75
2023/12/01 02:28:10;;;;;;;;;;;;;;;-140.72;100.00;55687.50;5085720;28;19916;-75
2023/12/01 02:30:35;;;;;;;;;;;;;;;-140.72;100.00;55711.88;5091671;28;20367;-75
2023/12/01 02:33:01;;;;;;;;;;;;;;;-140.72;100.00;55711.88;5089206;28;20424;-75
2023/12/01 02:35:29;;;;;;;;;;;;;;;-140.72;100.00;55679.41;5091128;28;19974;-75
2023/12/01 02:37:58;;;;;;;;;;;;;;;-140.72;100.00;55687.50;5078100;28;19916;-75
2023/12/01 02:40:24;;;;;;;;;;;;;;;-140.72;100.00;55709.84;5072871;28;19920;-75
2023/12/01 02:42:50;;;;;;;;;;;;;;;-140.72;100.00;55685.50;5094339;28;19923;-75
2023/12/01 02:45:19;;;;;;;;;;;;;;;-140.72;100.00;55689.56;5095928;28;19955;-75
2023/12/01 02:47:47;;;;;;;;;;;;;;;-140.72;100.00;55687.50;5097250;28;20434;-75
2023/12/01 02:50:12;;;;;;;;;;;;;;;-140.72;100.00;55669.25;5074704;28;19924;-75
2023/12/01 02:52:38;;;;;;;;;;;;;;;-140.72;100.00;55687.50;5076123;28;19920;-75
2023/12/01 02:55:04;;;;;;;;;;;;;;;-140.72;100.00;55693.59;5071607;28;19924;-75
2023/12/01 02:57:29;;;;;;;;;;;;;;;-140.72;100.00;55663.16;5056113;28;19970;-75
2023/12/01 02:59:54;;;;;;;;;;;;;;;-140.72;100.00;55685.50;5084245;28;19927;-75
2023/12/01 03:02:19;;;;;;;;;;;;;;;-140.72;100.00;55679.41;5065692;28;20031;-75
2023/12/01 03:04:44;;;;;;;;;;;;;;;-140.72;100.00;55632.69;5067673;28;20046;-75
2023/12/01 03:07:10;;;;;;;;;;;;;;;-140.72;100.00;55671.28;5064229;28;19921;-75
2023/12/01 03:09:35;;;;;;;;;;;;;;;-140.72;100.00;55648.94;5077567;28;19943;-75
2023/12/01 03:12:01;;;;;;;;;;;;;;;-140.72;100.00;55592.06;5076098;28;19920;-75
2023/12/01 03:14:26;;;;;;;;;;;;;;;-140.72;100.00;55585.97;5070907;28;19976;-75
2023/12/01 03:16:51;;;;;;;;;;;;;;;-140.72;100.00;55618.47;5072225;28;20410;-75
2023/12/01 03:19:16;;;;;;;;;;;;;;;-140.72;100.00;55636.75;5073028;28;19920;-75
2023/12/01 03:21:42;;;;;;;;;;;;;;;-140.72;100.00;55598.16;5086173;28;20234;-75
2023/12/01 03:24:09;;;;;;;;;;;;;;;-140.72;100.00;55616.44;5090812;28;19920;-75
2023/12/01 03:26:35;;;;;;;;;;;;;;;-140.72;100.00;55620.50;5072287;28;19943;-75
2023/12/01 03:29:00;;;;;;;;;;;;;;;-140.72;100.00;55618.47;5069948;28;19916;-75
2023/12/01 03:31:25;;;;;;;;;;;;;;;-140.72;100.00;55585.97;5072149;28;19924;-76
2023/12/01 03:33:50;;;;;;;;;;;;;;;-140.72;100.00;55557.56;5071609;28;20253;-75
2023/12/01 03:36:15;;;;;;;;;;;;;;;-140.72;100.00;55588.00;5088967;28;20440;-75
2023/12/01 03:38:41;;;;;;;;;;;;;;;-140.72;100.00;55600.19;5071261;28;19917;-75
2023/12/01 03:41:06;;;;;;;;;;;;;;;-140.72;100.00;55514.91;5068317;28;19946;-75
2023/12/01 03:43:33;;;;;;;;;;;;;;;-140.72;100.00;55561.59;5080889;28;19974;-75
2023/12/01 03:45:58;;;;;;;;;;;;;;;-140.72;100.00;55553.50;5074457;28;19959;-75
2023/12/01 03:48:23;;;;;;;;;;;;;;;-140.72;100.00;55547.41;5071080;28;20346;-75
2023/12/01 03:50:50;;;;;;;;;;;;;;;-140.72;100.00;55535.22;5074523;28;19973;-75
2023/12/01 03:53:15;;;;;;;;;;;;;;;-140.72;100.00;55539.28;5081619;28;20395;-75
2023/12/01 03:55:40;;;;;;;;;;;;;;;-140.72;100.00;55535.22;5077579;28;19923;-75
2023/12/01 03:58:06;;;;;;;;;;;;;;;-140.72;100.00;55537.25;5070508;28;19967;-75
2023/12/01 04:00:32;;;;;;;;;;;;;;;-140.72;100.00;55573.78;5070543;28;19923;-75
2023/12/01 04:02:58;;;;;;;;;;;;;;;-140.72;100.00;55529.13;5070073;28;20007;-75
2023/12/01 04:05:25;;;;;;;;;;;;;;;-140.72;100.00;55492.56;5082181;28;19923;-75
2023/12/01 04:07:54;;;;;;;;;;;;;;;-140.72;100.00;55504.75;5074297;28;19920;-75
2023/12/01 04:10:19;;;;;;;;;;;;;;;-140.72;100.00;55482.41;5076080;28;20002;-75
2023/12/01 04:12:45;;;;;;;;;;;;;;;-140.72;100.00;55482.41;5070113;28;19963;-75
2023/12/01 04:15:14;;;;;;;;;;;;;;;-140.72;100.00;55496.63;5075298;28;20411;-75
2023/12/01 04:17:43;;;;;;;;;;;;;;;-140.72;100.00;55521.00;5069635;28;19997;-75
2023/12/01 04:20:22;;;;;;;;;;;;;;;-140.72;100.00;55476.31;5073609;28;20011;-75
2023/12/01 04:22:52;;;;;;;;;;;;;;;-140.72;100.00;55472.25;5071159;28;19956;-75
2023/12/01 04:25:17;;;;;;;;;;;;;;;-140.72;100.00;55512.88;5089623;28;19916;-75
2023/12/01 04:27:44;;;;;;;;;;;;;;;-140.72;100.00;55427.59;5074236;28;20438;-75
2023/12/01 04:30:14;;;;;;;;;;;;;;;-140.72;100.00;55480.38;5091813;28;20288;-76
2023/12/01 04:32:47;;;;;;;;;;;;;;;-140.72;100.00;55419.47;5074805;28;20069;-75
2023/12/01 04:35:13;;;;;;;;;;;;;;;-140.72;100.00;55451.94;5073975;28;20382;-75
2023/12/01 04:37:40;;;;;;;;;;;;;;;-140.72;100.00;55492.56;5072198;28;20014;-75
2023/12/01 04:40:14;;;;;;;;;;;;;;;-140.72;100.00;55437.75;5085248;28;19916;-75
2023/12/01 04:42:40;;;;;;;;;;;;;;;-140.72;100.00;55411.34;5073653;28;19924;-75
2023/12/01 04:45:06;;;;;;;;;;;;;;;-140.72;100.00;55435.72;5081341;28;19928;-75
2023/12/01 04:47:33;;;;;;;;;;;;;;;-140.72;100.00;55386.97;5085036;28;20023;-74
2023/12/01 04:49:58;;;;;;;;;;;;;;;-140.72;100.00;55415.41;5075057;28;19965;-75
2023/12/01 04:52:23;;;;;;;;;;;;;;;-140.72;100.00;55421.50;5104124;28;19930;-75
2023/12/01 04:54:48;;;;;;;;;;;;;;;-140.72;100.00;55368.69;5083780;28;19931;-75
2023/12/01 04:57:13;;;;;;;;;;;;;;;-140.72;100.00;55389.00;5100418;28;20026;-74
2023/12/01 04:59:39;;;;;;;;;;;;;;;-140.72;100.00;55382.91;5090740;28;19927;-75
2023/12/01 05:02:04;;;;;;;;;;;;;;;-140.72;100.00;55364.63;5081541;28;19920;-75
2023/12/01 05:04:29;;;;;;;;;;;;;;;-140.72;100.00;55380.88;5098086;28;20285;-75
2023/12/01 05:06:54;;;;;;;;;;;;;;;-140.72;100.00;55313.88;5103396;28;19920;-75
2023/12/01 05:09:22;;;;;;;;;;;;;;;-140.72;100.00;55338.22;5086884;28;19916;-75
2023/12/01 05:11:48;;;;;;;;;;;;;;;-140.72;100.00;55317.94;5077055;28;19920;-74
2023/12/01 05:14:13;;;;;;;;;;;;;;;-140.72;100.00;55315.91;5078823;28;19928;-75
2023/12/01 05:16:39;;;;;;;;;;;;;;;-140.72;100.00;55305.75;5088158;28;19983;-77
2023/12/01 05:19:05;;;;;;;;;;;;;;;-140.72;100.00;55309.81;5082077;28;20396;-76
2023/12/01 05:21:30;;;;;;;;;;;;;;;-140.72;100.00;55261.06;5088249;28;19924;-76
2023/12/01 05:23:57;;;;;;;;;;;;;;;-140.72;100.00;55267.16;5092167;28;20037;-76
2023/12/01 05:26:23;;;;;;;;;;;;;;;-140.72;100.00;55281.38;5097557;28;19970;-76
2023/12/01 05:28:48;;;;;;;;;;;;;;;-140.72;100.00;55287.47;5100838;28;20337;-75
2023/12/01 05:31:13;;;;;;;;;;;;;;;-140.72;100.00;55238.72;5085619;28;20362;-76
2023/12/01 05:33:38;;;;;;;;;;;;;;;-140.72;100.00;55246.84;5083838;28;20442;-76
2023/12/01 05:36:14;;;;;;;;;;;;;;;-140.72;100.00;55230.63;5097621;28;19927;-76
2023/12/01 05:38:39;;;;;;;;;;;;;;;-140.72;100.00;55232.66;5102762;28;19995;-75
2023/12/01 05:41:09;;;;;;;;;;;;;;;-140.72;100.00;55181.88;5088186;28;20269;-75
2023/12/01 05:43:34;;;;;;;;;;;;;;;-140.72;100.00;55202.19;5105815;28;19943;-77
2023/12/01 05:45:59;;;;;;;;;;;;;;;-140.72;100.00;55244.81;5100316;28;20373;-77
2023/12/01 05:48:25;;;;;;;;;;;;;;;-140.72;100.00;55200.16;5100735;28;19963;-76
2023/12/01 05:50:51;;;;;;;;;;;;;;;-140.72;100.00;55232.66;5080477;28;20007;-76
2023/12/01 05:53:17;;;;;;;;;;;;;;;-140.72;100.00;55208.28;5054589;28;19932;-76
2023/12/01 05:55:42;;;;;;;;;;;;;;;-140.72;100.00;55196.09;5052823;28;20134;-75
2023/12/01 05:58:11;;;;;;;;;;;;;;;-140.72;100.00;55208.28;5050223;28;19963;-76
2023/12/01 06:00:37;;;;;;;;;;;;;;;-140.72;100.00;55210.31;5048603;28;19927;-80
2023/12/01 06:03:06;;;;;;;;;;;;;;;-140.72;100.00;55212.34;5053601;28;20374;-76
2023/12/01 06:05:31;;;;;;;;;;;;;;;-140.72;100.00;55248.88;5057041;28;19976;-76
2023/12/01 06:07:58;;;;;;;;;;;;;;;-140.72;100.00;55169.69;5052694;28;19952;-76
2023/12/01 06:10:23;;;;;;;;;;;;;;;-140.72;100.00;55232.66;5048654;28;20175;-75
2023/12/01 06:12:49;;;;;;;;;;;;;;;-140.72;100.00;55196.09;5050659;28;19982;-75
2023/12/01 06:15:16;;;;;;;;;;;;;;;-140.72;100.00;55177.81;5058521;28;19927;-75
2023/12/01 06:17:42;;;;;;;;;;;;;;;-140.72;100.00;55192.03;5050123;28;19990;-75
2023/12/01 06:20:16;;;;;;;;;;;;;;;-140.72;100.00;55159.53;5049700;28;19920;-76
2023/12/01 06:22:43;;;;;;;;;;;;;;;-140.72;100.00;55179.84;5067021;28;19975;-75
2023/12/01 06:25:08;;;;;;;;;;;;;;;-140.72;100.00;55133.16;5050442;28;20381;-75
2023/12/01 06:27:33;;;;;;;;;;;;;;;-140.72;100.00;55145.31;5050121;28;19917;-75
2023/12/01 06:29:58;;;;;;;;;;;;;;;-140.72;100.00;55200.16;5055235;28;19998;-75
2023/12/01 06:32:24;;;;;;;;;;;;;;;-140.72;100.00;55187.97;5048665;28;19921;-76
2023/12/01 06:34:49;;;;;;;;;;;;;;;-140.72;100.00;55137.22;5051782;28;20020;-75
2023/12/01 06:37:14;;;;;;;;;;;;;;;-140.72;100.00;55175.78;5038506;28;20031;-76
2023/12/01 06:39:40;;;;;;;;;;;;;;;-140.72;100.00;55163.59;5049204;28;19920;-76
2023/12/01 06:42:06;;;;;;;;;;;;;;;-140.72;100.00;55167.66;5048139;28;20305;-75
2023/12/01 06:44:34;;;;;;;;;;;;;;;-140.72;100.00;55143.31;5050388;28;19974;-75
2023/12/01 06:46:59;;;;;;;;;;;;;;;-140.72;100.00;55147.34;5051937;28;20396;-75
2023/12/01 06:49:24;;;;;;;;;;;;;;;-140.72;100.00;55118.94;5059151;28;19921;-74
2023/12/01 06:51:49;;;;;;;;;;;;;;;-140.72;100.00;55131.13;5064064;28;19921;-76
2023/12/01 06:54:15;;;;;;;;;;;;;;;-140.72;100.00;55118.94;5081979;28;19916;-75
2023/12/01 06:56:40;;;;;;;;;;;;;;;-140.72;100.00;55102.69;5071242;28;19921;-75
2023/12/01 06:59:05;;;;;;;;;;;;;;;-140.72;100.00;55141.28;5066078;28;19921;-75
2023/12/01 07:01:31;;;;;;;;;;;;;;;-140.72;100.00;55108.78;5069462;28;19929;-75
2023/12/01 07:03:57;;;;;;;;;;;;;;;-140.72;100.00;55090.50;5079920;28;19971;-76
2023/12/01 07:06:22;;;;;;;;;;;;;;;-140.72;100.00;55074.25;5066622;28;19932;-74
2023/12/01 07:08:47;;;;;;;;;;;;;;;-140.72;100.00;55035.69;5068184;28;19926;-75
2023/12/01 07:11:13;;;;;;;;;;;;;;;-140.72;100.00;55015.38;5061456;28;19921;-75
2023/12/01 07:13:38;;;;;;;;;;;;;;;-140.72;100.00;54997.09;5061688;28;19923;-76
2023/12/01 07:16:09;;;;;;;;;;;;;;;-140.72;100.00;55019.44;5067649;28;19920;-75
2023/12/01 07:18:35;;;;;;;;;;;;;;;-140.72;100.00;54982.88;5060459;28;20576;-77
2023/12/01 07:21:05;;;;;;;;;;;;;;;-140.72;100.00;54986.94;5062902;28;19947;-75
2023/12/01 07:23:30;;;;;;;;;;;;;;;-140.72;100.00;54919.94;5077273;28;19928;-75
2023/12/01 07:25:55;;;;;;;;;;;;;;;-140.72;100.00;54930.09;5080212;28;19978;-75
2023/12/01 07:28:24;;;;;;;;;;;;;;;-140.72;100.00;54932.13;5086769;28;19933;-75
2023/12/01 07:30:49;;;;;;;;;;;;;;;-140.72;100.00;54883.41;5073965;28;19942;-76
2023/12/01 07:33:14;;;;;;;;;;;;;;;-140.72;100.00;54867.16;5072377;28;19938;-76
2023/12/01 07:35:40;;;;;;;;;;;;;;;-140.72;100.00;54846.84;5080057;28;19920;-75
2023/12/01 07:38:05;;;;;;;;;;;;;;;-140.72;100.00;54871.22;5079735;28;19977;-75
2023/12/01 07:40:32;;;;;;;;;;;;;;;-140.72;100.00;54844.81;5062025;28;19916;-76
2023/12/01 07:43:00;;;;;;;;;;;;;;;-140.72;100.00;54822.50;5069057;28;19935;-76
2023/12/01 07:45:25;;;;;;;;;;;;;;;-140.72;100.00;54816.41;5075578;28;19932;-80
2023/12/01 07:47:52;;;;;;;;;;;;;;;-140.72;100.00;54846.84;5072121;28;19920;-77
2023/12/01 07:50:18;;;;;;;;;;;;;;;-140.72;100.00;54785.94;5082401;28;19917;-79
2023/12/01 07:52:43;;;;;;;;;;;;;;;-140.72;100.00;54773.75;5075275;28;19920;-77
2023/12/01 07:55:09;;;;;;;;;;;;;;;-140.72;100.00;54729.09;5074911;28;19920;-80
2023/12/01 07:57:35;;;;;;;;;;;;;;;-140.72;100.00;54773.75;5087361;28;19968;-77
2023/12/01 08:00:00;;;;;;;;;;;;;;;-140.72;100.00;54725.03;5092842;28;20599;-80
2023/12/01 08:02:27;;;;;;;;;;;;;;;-140.72;100.00;54714.88;5093740;28;19946;-78
2023/12/01 08:04:52;;;;;;;;;;;;;;;-140.72;100.00;54686.47;5082196;28;19928;-78
2023/12/01 08:07:17;;;;;;;;;;;;;;;-140.72;100.00;54704.72;5081738;28;19920;-78
2023/12/01 08:09:42;;;;;;;;;;;;;;;-140.72;100.00;54700.66;5082826;28;19916;-81
2023/12/01 08:12:08;;;;;;;;;;;;;;;-140.72;100.00;54716.91;5093144;28;19927;-77
2023/12/01 08:14:33;;;;;;;;;;;;;;;-140.72;100.00;54702.69;5089194;28;20060;-77
2023/12/01 08:16:58;;;;;;;;;;;;;;;-140.72;100.00;54700.66;5092952;28;19924;-77
2023/12/01 08:19:24;;;;;;;;;;;;;;;-140.72;100.00;54708.78;5101246;28;19977;-79
2023/12/01 08:21:49;;;;;;;;;;;;;;;-140.72;100.00;54735.19;5084622;28;19920;-77
2023/12/01 08:24:17;;;;;;;;;;;;;;;-140.72;100.00;54737.22;5091914;28;19942;-78
2023/12/01 08:26:42;;;;;;;;;;;;;;;-140.72;100.00;54686.47;5085026;28;19922;-78
2023/12/01 08:29:07;;;;;;;;;;;;;;;-140.72;100.00;54753.47;5092194;28;19944;-78
2023/12/01 08:31:33;;;;;;;;;;;;;;;-140.72;100.00;54755.50;5091372;28;20098;-78
2023/12/01 08:33:58;;;;;;;;;;;;;;;-140.72;100.00;54735.19;5080245;28;19942;-78
2023/12/01 08:36:24;;;;;;;;;;;;;;;-140.72;100.00;54723.00;5078948;28;20010;-80
2023/12/01 08:38:50;;;;;;;;;;;;;;;-140.72;100.00;54737.22;5103156;28;19967;-78
2023/12/01 08:41:15;;;;;;;;;;;;;;;-140.72;100.00;54708.78;5083687;28;19927;-77
2023/12/01 08:43:40;;;;;;;;;;;;;;;-140.72;100.00;54729.09;5095812;28;19935;-77
2023/12/01 08:46:05;;;;;;;;;;;;;;;-140.72;100.00;54798.13;5077548;28;19924;-77
2023/12/01 08:48:31;;;;;;;;;;;;;;;-140.72;100.00;54777.81;5075091;28;20000;-77
2023/12/01 08:50:56;;;;;;;;;;;;;;;-140.72;100.00;54796.09;5079656;28;20366;-77
2023/12/01 08:53:24;;;;;;;;;;;;;;;-140.72;100.00;54753.47;5070720;28;19930;-77
2023/12/01 08:55:50;;;;;;;;;;;;;;;-140.72;100.00;54787.97;5071884;28;19972;-78
2023/12/01 08:58:17;;;;;;;;;;;;;;;-140.72;100.00;54771.72;5070448;28;19936;-77
2023/12/01 09:00:42;;;;;;;;;;;;;;;-140.72;100.00;54771.72;5095308;28;19959;-77
2023/12/01 09:03:07;;;;;;;;;;;;;;;-140.72;100.00;54779.84;5080502;28;19996;-78
2023/12/01 09:05:33;;;;;;;;;;;;;;;-140.72;100.00;54753.47;5096222;28;20334;-77
2023/12/01 09:08:01;;;;;;;;;;;;;;;-140.72;100.00;54712.84;5081698;28;19920;-77
2023/12/01 09:10:27;;;;;;;;;;;;;;;-140.72;100.00;54660.06;5092072;28;19930;-77
2023/12/01 09:12:52;;;;;;;;;;;;;;;-140.72;100.00;54716.91;5068806;28;20015;-78
2023/12/01 09:15:18;;;;;;;;;;;;;;;-140.72;100.00;54645.84;5088440;28;19969;-78
2023/12/01 09:17:43;;;;;;;;;;;;;;;-140.72;100.00;54586.97;5085379;28;20020;-78
2023/12/01 09:20:11;;;;;;;;;;;;;;;-140.72;100.00;54562.59;5093860;28;19974;-78
2023/12/01 09:22:37;;;;;;;;;;;;;;;-140.72;100.00;54534.19;5083720;28;19924;-78
2023/12/01 09:25:02;;;;;;;;;;;;;;;-140.72;100.00;54550.44;5073451;28;19927;-80
2023/12/01 09:27:27;;;;;;;;;;;;;;;-140.72;100.00;54538.25;5075710;28;19994;-78
2023/12/01 09:29:53;;;;;;;;;;;;;;;-140.72;100.00;54457.03;5103004;28;19923;-78
2023/12/01 09:32:19;;;;;;;;;;;;;;;-140.72;100.00;54505.75;5085014;28;19920;-78
2023/12/01 09:34:44;;;;;;;;;;;;;;;-140.72;100.00;54438.78;5104123;28;19928;-78
2023/12/01 09:37:09;;;;;;;;;;;;;;;-140.72;100.00;54430.66;5091602;28;19996;-78
2023/12/01 09:39:34;;;;;;;;;;;;;;;-140.72;100.00;54455.00;5085119;28;19943;-79
2023/12/01 09:42:03;;;;;;;;;;;;;;;-140.72;100.00;54416.44;5085153;28;19927;-78
2023/12/01 09:44:29;;;;;;;;;;;;;;;-140.72;100.00;54361.63;5087527;28;20366;-78
2023/12/01 09:46:55;;;;;;;;;;;;;;;-140.72;100.00;54357.56;5087086;28;19916;-78
2023/12/01 09:49:22;;;;;;;;;;;;;;;-140.72;100.00;54306.81;5086287;28;19979;-79
2023/12/01 09:51:48;;;;;;;;;;;;;;;-140.72;100.00;54319.00;5082303;28;19921;-78
2023/12/01 09:54:13;;;;;;;;;;;;;;;-140.72;100.00;54252.00;5084794;28;19984;-79
2023/12/01 09:56:38;;;;;;;;;;;;;;;-140.72;100.00;54231.69;5076124;28;19920;-78
2023/12/01 09:59:05;;;;;;;;;;;;;;;-140.72;100.00;54213.44;5085095;28;19920;-78
2023/12/01 10:01:30;;;;;;;;;;;;;;;-140.72;100.00;54148.47;5087929;28;19922;-79
2023/12/01 10:03:55;;;;;;;;;;;;;;;-140.72;100.00;54107.88;5086997;28;20049;-79
2023/12/01 10:06:21;;;;;;;;;;;;;;;-140.72;100.00;54201.25;5096399;28;19920;-78
2023/12/01 10:08:49;;;;;;;;;;;;;;;-140.72;100.00;54142.38;5106135;28;19924;-78
2023/12/01 10:11:18;;;;;;;;;;;;;;;-140.72;100.00;54189.06;5090237;28;19978;-78
2023/12/01 10:13:44;;;;;;;;;;;;;;;-140.72;100.00;54168.75;5112482;28;19920;-78
2023/12/01 10:16:09;;;;;;;;;;;;;;;-140.72;100.00;54132.22;5080952;28;20413;-78
2023/12/01 10:18:34;;;;;;;;;;;;;;;-140.72;100.00;54120.03;5097638;28;20007;-77
2023/12/01 10:21:04;;;;;;;;;;;;;;;-140.72;100.00;54132.22;5086755;28;19920;-80
2023/12/01 10:23:30;;;;;;;;;;;;;;;-140.72;100.00;54095.69;5084726;28;19931;-78
2023/12/01 10:25:56;;;;;;;;;;;;;;;-140.72;100.00;54049.00;5076520;28;19919;-78
2023/12/01 10:28:22;;;;;;;;;;;;;;;-140.72;100.00;54038.84;5107238;28;19963;-78
2023/12/01 10:30:55;;;;;;;;;;;;;;;-140.72;100.00;54010.44;5090898;28;20259;-81
2023/12/01 10:33:21;;;;;;;;;;;;;;;-140.72;100.00;54008.41;5092912;28;19916;-77
2023/12/01 10:35:58;;;;;;;;;;;;;;;-140.72;100.00;53979.97;5067214;28;19931;-77
2023/12/01 10:38:25;;;;;;;;;;;;;;;-140.72;100.00;53955.63;5065459;28;19977;-77
2023/12/01 10:40:51;;;;;;;;;;;;;;;-140.72;100.00;53933.28;5092468;28;19962;-77
2023/12/01 10:43:16;;;;;;;;;;;;;;;-140.72;100.00;53915.03;5101407;28;20014;-77
2023/12/01 10:45:42;;;;;;;;;;;;;;;-140.72;100.00;53910.97;5068986;28;19920;-77
2023/12/01 10:48:08;;;;;;;;;;;;;;;-140.72;100.00;53923.13;5078842;28;19920;-77
2023/12/01 10:50:36;;;;;;;;;;;;;;;-140.72;100.00;53884.56;5065950;28;19924;-82
2023/12/01 10:53:02;;;;;;;;;;;;;;;-140.72;100.00;53929.22;5084338;28;19966;-80
2023/12/01 10:55:28;;;;;;;;;;;;;;;-140.72;100.00;53923.13;5100225;28;19920;-79
2023/12/01 10:57:54;;;;;;;;;;;;;;;-140.72;100.00;53984.03;5078231;28;20432;-78
2023/12/01 11:00:31;;;;;;;;;;;;;;;-140.72;100.00;53973.88;5077096;28;19955;-77
2023/12/01 11:03:03;;;;;;;;;;;;;;;-140.72;100.00;53969.81;5091665;28;19942;-77
2023/12/01 11:05:31;;;;;;;;;;;;;;;-140.72;100.00;54022.59;5079231;28;20014;-77
2023/12/01 11:08:04;;;;;;;;;;;;;;;-140.72;100.00;53977.94;5074983;28;19923;-78
2023/12/01 11:10:35;;;;;;;;;;;;;;;-140.72;100.00;54004.34;5094331;28;20409;-78
2023/12/01 11:13:12;;;;;;;;;;;;;;;-140.72;100.00;54014.50;5084197;28;19920;-77
2023/12/01 11:15:39;;;;;;;;;;;;;;;-140.72;100.00;54004.34;5066631;28;19939;-78
2023/12/01 11:18:11;;;;;;;;;;;;;;;-140.72;100.00;54083.50;5087182;28;19951;-77
2023/12/01 11:20:37;;;;;;;;;;;;;;;-140.72;100.00;54051.03;5081448;28;19924;-77
2023/12/01 11:23:06;;;;;;;;;;;;;;;-140.72;100.00;54075.38;5075430;28;19990;-77
2023/12/01 11:25:43;;;;;;;;;;;;;;;-140.72;100.00;54101.78;5080960;28;20388;-77
2023/12/01 11:28:17;;;;;;;;;;;;;;;-140.72;100.00;54069.28;5084791;28;19954;-78
2023/12/01 11:31:13;;;;;;;;;;;;;;;-140.72;100.00;54091.63;5094779;28;19974;-80
2023/12/01 11:33:40;;;;;;;;;;;;;;;-140.72;100.00;54085.53;5105529;28;19977;-78
2023/12/01 11:36:21;;;;;;;;;;;;;;;-140.72;100.00;54087.56;5090708;28;20308;-78
2023/12/01 11:39:10;;;;;;;;;;;;;;;-140.72;100.00;54075.38;5093690;28;19938;-79
2023/12/01 11:41:41;;;;;;;;;;;;;;;-140.72;100.00;54097.72;5099419;28;19920;-80
2023/12/01 11:44:10;;;;;;;;;;;;;;;-140.72;100.00;54063.22;5071518;28;20304;-73
2023/12/01 11:46:38;;;;;;;;;;;;;;;-140.72;100.00;54032.75;5089584;28;19934;-76
2023/12/01 11:49:04;;;;;;;;;;;;;;;-140.72;100.00;54002.31;5075763;28;20312;-74
2023/12/01 11:51:30;;;;;;;;;;;;;;;-140.72;100.00;54020.56;5069089;28;19928;-74
2023/12/01 11:53:59;;;;;;;;;;;;;;;-140.72;100.00;53965.78;5087994;28;19928;-74
2023/12/01 11:56:33;;;;;;;;;;;;;;;-140.72;100.00;53947.50;5086482;28;20007;-74
2023/12/01 11:58:59;;;;;;;;;;;;;;;-140.72;100.00;53933.28;5091752;28;19939;-74
2023/12/01 12:01:25;;;;;;;;;;;;;;;-140.72;100.00;53973.88;5069859;28;20060;-75
2023/12/01 12:03:57;;;;;;;;;;;;;;;-140.72;100.00;53915.03;5089306;28;20289;-74
2023/12/01 12:06:23;;;;;;;;;;;;;;;-140.72;100.00;53933.28;5081717;28;19924;-74
2023/12/01 12:08:50;;;;;;;;;;;;;;;-140.72;100.00;53925.16;5070173;28;19920;-74
2023/12/01 12:11:16;;;;;;;;;;;;;;;-140.72;100.00;53900.81;5069651;28;19919;-77
2023/12/01 12:13:42;;;;;;;;;;;;;;;-140.72;100.00;53931.25;5090864;28;19927;-75
2023/12/01 12:16:07;;;;;;;;;;;;;;;-140.72;100.00;53931.25;5091963;28;20338;-75